sensor_id;sensor_type;location;lat;lon;timestamp;temperature;humidity
67750;DHT22;54550;48.838;8.828;2022-12-31T00:01:19;11.10;99.90
67750;DHT22;54550;48.838;8.828;2022-12-31T00:03:45;11.30;99.90
67750;DHT22;54550;48.838;8.828;2022-12-31T00:06:26;11.10;99.90
67750;DHT22;54550;48.838;8.828;2022-12-31T00:08:54;11.30;99.90
67750;DHT22;54550;48.838;8.828;2022-12-31T00:11:20;11.20;99.90
67750;DHT22;54550;48.838;8.828;2022-12-31T00:13:47;11.30;99.90
67750;DHT22;54550;48.838;8.828;2022-12-31T00:16:18;11.30;99.90
67750;DHT22;54550;48.838;8.828;2022-12-31T00:18:46;11.30;99.90
67750;DHT22;54550;48.838;8.828;2022-12-31T00:21:13;11.40;99.90
67750;DHT22;54550;48.838;8.828;2022-12-31T00:23:39;11.20;99.90
67750;DHT22;54550;48.838;8.828;2022-12-31T00:26:07;11.30;99.90
67750;DHT22;54550;48.838;8.828;2022-12-31T00:28:34;11.30;99.90
67750;DHT22;54550;48.838;8.828;2022-12-31T00:31:05;11.30;99.90
67750;DHT22;54550;48.838;8.828;2022-12-31T00:33:31;11.30;99.90
67750;DHT22;54550;48.838;8.828;2022-12-31T00:36:13;11.30;99.90
67750;DHT22;54550;48.838;8.828;2022-12-31T00:38:40;11.50;99.90
67750;DHT22;54550;48.838;8.828;2022-12-31T00:41:07;11.50;99.90
67750;DHT22;54550;48.838;8.828;2022-12-31T00:43:33;11.60;99.90
67750;DHT22;54550;48.838;8.828;2022-12-31T00:45:59;11.50;99.90
67750;DHT22;54550;48.838;8.828;2022-12-31T00:48:24;11.50;99.90
67750;DHT22;54550;48.838;8.828;2022-12-31T00:50:50;11.40;99.90
67750;DHT22;54550;48.838;8.828;2022-12-31T00:53:16;11.50;99.90
67750;DHT22;54550;48.838;8.828;2022-12-31T00:55:42;11.60;99.90
67750;DHT22;54550;48.838;8.828;2022-12-31T00:58:08;11.60;99.90
67750;DHT22;54550;48.838;8.828;2022-12-31T01:00:35;11.50;99.90
67750;DHT22;54550;48.838;8.828;2022-12-31T01:03:01;11.50;99.90
67750;DHT22;54550;48.838;8.828;2022-12-31T01:05:26;11.50;99.90
67750;DHT22;54550;48.838;8.828;2022-12-31T01:07:52;11.50;99.90
67750;DHT22;54550;48.838;8.828;2022-12-31T01:10:17;11.50;99.90
67750;DHT22;54550;48.838;8.828;2022-12-31T01:13:03;11.50;99.90
67750;DHT22;54550;48.838;8.828;2022-12-31T01:15:35;11.50;99.90
67750;DHT22;54550;48.838;8.828;2022-12-31T01:18:03;11.40;99.90
67750;DHT22;54550;48.838;8.828;2022-12-31T01:20:29;11.30;99.90
67750;DHT22;54550;48.838;8.828;2022-12-31T01:22:54;11.40;99.90
67750;DHT22;54550;48.838;8.828;2022-12-31T01:25:20;11.50;99.90
67750;DHT22;54550;48.838;8.828;2022-12-31T01:27:46;11.60;99.90
67750;DHT22;54550;48.838;8.828;2022-12-31T01:30:12;11.70;99.90
67750;DHT22;54550;48.838;8.828;2022-12-31T01:32:37;11.70;99.90
67750;DHT22;54550;48.838;8.828;2022-12-31T01:35:03;11.60;99.90
67750;DHT22;54550;48.838;8.828;2022-12-31T01:37:28;11.50;99.90
67750;DHT22;54550;48.838;8.828;2022-12-31T01:39:54;11.60;99.90
67750;DHT22;54550;48.838;8.828;2022-12-31T01:42:20;11.60;99.90
67750;DHT22;54550;48.838;8.828;2022-12-31T01:44:52;11.60;99.90
67750;DHT22;54550;48.838;8.828;2022-12-31T01:47:30;11.70;99.90
67750;DHT22;54550;48.838;8.828;2022-12-31T01:50:04;11.80;99.90
67750;DHT22;54550;48.838;8.828;2022-12-31T01:52:34;11.70;99.90
67750;DHT22;54550;48.838;8.828;2022-12-31T01:55:07;11.90;99.90
67750;DHT22;54550;48.838;8.828;2022-12-31T01:57:35;11.90;99.90
67750;DHT22;54550;48.838;8.828;2022-12-31T02:00:02;11.90;99.90
67750;DHT22;54550;48.838;8.828;2022-12-31T02:02:47;11.70;99.90
67750;DHT22;54550;48.838;8.828;2022-12-31T02:05:34;11.70;99.90
67750;DHT22;54550;48.838;8.828;2022-12-31T02:08:02;11.70;99.90
67750;DHT22;54550;48.838;8.828;2022-12-31T02:10:28;11.60;99.90
67750;DHT22;54550;48.838;8.828;2022-12-31T02:12:53;11.80;99.90
67750;DHT22;54550;48.838;8.828;2022-12-31T02:15:23;11.90;99.90
67750;DHT22;54550;48.838;8.828;2022-12-31T02:23:23;12.20;99.90
67750;DHT22;54550;48.838;8.828;2022-12-31T02:31:27;12.20;99.90
67750;DHT22;54550;48.838;8.828;2022-12-31T02:34:27;12.20;99.90
67750;DHT22;54550;48.838;8.828;2022-12-31T02:36:57;12.20;99.90
67750;DHT22;54550;48.838;8.828;2022-12-31T02:39:23;12.20;99.90
67750;DHT22;54550;48.838;8.828;2022-12-31T02:41:50;12.10;99.90
67750;DHT22;54550;48.838;8.828;2022-12-31T02:47:10;11.90;99.90
67750;DHT22;54550;48.838;8.828;2022-12-31T02:50:03;11.90;99.90
67750;DHT22;54550;48.838;8.828;2022-12-31T02:52:40;11.90;99.90
67750;DHT22;54550;48.838;8.828;2022-12-31T03:00:50;11.90;99.90
67750;DHT22;54550;48.838;8.828;2022-12-31T03:03:35;11.80;99.90
67750;DHT22;54550;48.838;8.828;2022-12-31T03:06:03;11.90;99.90
67750;DHT22;54550;48.838;8.828;2022-12-31T03:08:29;11.90;99.90
67750;DHT22;54550;48.838;8.828;2022-12-31T03:10:55;11.80;99.90
67750;DHT22;54550;48.838;8.828;2022-12-31T03:13:22;11.80;99.90
67750;DHT22;54550;48.838;8.828;2022-12-31T03:15:48;11.80;99.90
67750;DHT22;54550;48.838;8.828;2022-12-31T03:18:18;11.80;99.90
67750;DHT22;54550;48.838;8.828;2022-12-31T03:21:10;11.70;99.90
67750;DHT22;54550;48.838;8.828;2022-12-31T03:23:55;11.70;99.90
67750;DHT22;54550;48.838;8.828;2022-12-31T03:26:39;11.70;99.90
67750;DHT22;54550;48.838;8.828;2022-12-31T03:29:05;11.80;99.90
67750;DHT22;54550;48.838;8.828;2022-12-31T03:31:30;11.90;99.90
67750;DHT22;54550;48.838;8.828;2022-12-31T03:33:56;12.00;99.90
67750;DHT22;54550;48.838;8.828;2022-12-31T03:36:21;11.90;99.90
67750;DHT22;54550;48.838;8.828;2022-12-31T03:38:47;11.90;99.90
67750;DHT22;54550;48.838;8.828;2022-12-31T03:41:12;12.00;99.90
67750;DHT22;54550;48.838;8.828;2022-12-31T03:43:38;11.90;99.90
67750;DHT22;54550;48.838;8.828;2022-12-31T03:46:04;11.90;99.90
67750;DHT22;54550;48.838;8.828;2022-12-31T03:48:29;11.90;99.90
67750;DHT22;54550;48.838;8.828;2022-12-31T03:50:55;12.00;99.90
67750;DHT22;54550;48.838;8.828;2022-12-31T03:53:20;12.00;99.90
67750;DHT22;54550;48.838;8.828;2022-12-31T03:55:53;12.00;99.90
67750;DHT22;54550;48.838;8.828;2022-12-31T03:58:20;12.00;99.90
67750;DHT22;54550;48.838;8.828;2022-12-31T04:00:46;12.10;99.90
67750;DHT22;54550;48.838;8.828;2022-12-31T04:03:11;12.10;99.90
67750;DHT22;54550;48.838;8.828;2022-12-31T04:05:37;12.10;99.90
67750;DHT22;54550;48.838;8.828;2022-12-31T04:08:02;12.10;99.90
67750;DHT22;54550;48.838;8.828;2022-12-31T04:10:28;12.10;99.90
67750;DHT22;54550;48.838;8.828;2022-12-31T04:12:53;12.20;99.90
67750;DHT22;54550;48.838;8.828;2022-12-31T04:15:20;12.30;99.90
67750;DHT22;54550;48.838;8.828;2022-12-31T04:17:46;12.20;99.90
67750;DHT22;54550;48.838;8.828;2022-12-31T04:20:12;12.20;99.90
67750;DHT22;54550;48.838;8.828;2022-12-31T04:22:38;12.30;99.90
67750;DHT22;54550;48.838;8.828;2022-12-31T04:25:05;12.30;99.90
67750;DHT22;54550;48.838;8.828;2022-12-31T04:27:36;12.20;99.90
67750;DHT22;54550;48.838;8.828;2022-12-31T04:30:02;12.20;99.90
67750;DHT22;54550;48.838;8.828;2022-12-31T04:32:28;12.10;99.90
67750;DHT22;54550;48.838;8.828;2022-12-31T04:34:53;12.00;99.90
67750;DHT22;54550;48.838;8.828;2022-12-31T04:37:19;11.90;99.90
67750;DHT22;54550;48.838;8.828;2022-12-31T04:39:44;11.80;99.90
67750;DHT22;54550;48.838;8.828;2022-12-31T04:42:10;11.80;99.90
67750;DHT22;54550;48.838;8.828;2022-12-31T04:44:36;11.80;99.90
67750;DHT22;54550;48.838;8.828;2022-12-31T04:47:01;11.80;99.90
67750;DHT22;54550;48.838;8.828;2022-12-31T04:49:27;11.90;99.90
67750;DHT22;54550;48.838;8.828;2022-12-31T04:51:52;11.80;99.90
67750;DHT22;54550;48.838;8.828;2022-12-31T04:54:18;11.90;99.90
67750;DHT22;54550;48.838;8.828;2022-12-31T04:56:43;12.00;99.90
67750;DHT22;54550;48.838;8.828;2022-12-31T04:59:09;12.00;99.90
67750;DHT22;54550;48.838;8.828;2022-12-31T05:01:34;12.10;99.90
67750;DHT22;54550;48.838;8.828;2022-12-31T05:04:01;12.00;99.90
67750;DHT22;54550;48.838;8.828;2022-12-31T05:06:27;12.00;99.90
67750;DHT22;54550;48.838;8.828;2022-12-31T05:08:52;12.10;99.90
67750;DHT22;54550;48.838;8.828;2022-12-31T05:11:18;12.20;99.90
67750;DHT22;54550;48.838;8.828;2022-12-31T05:13:44;12.30;99.90
67750;DHT22;54550;48.838;8.828;2022-12-31T05:16:09;12.30;99.90
67750;DHT22;54550;48.838;8.828;2022-12-31T05:18:35;12.40;99.90
67750;DHT22;54550;48.838;8.828;2022-12-31T05:21:01;12.50;99.90
67750;DHT22;54550;48.838;8.828;2022-12-31T05:23:27;12.50;99.90
67750;DHT22;54550;48.838;8.828;2022-12-31T05:25:53;12.50;99.90
67750;DHT22;54550;48.838;8.828;2022-12-31T05:28:18;12.50;99.90
67750;DHT22;54550;48.838;8.828;2022-12-31T05:30:47;12.60;99.90
67750;DHT22;54550;48.838;8.828;2022-12-31T05:33:14;12.50;99.90
67750;DHT22;54550;48.838;8.828;2022-12-31T05:35:39;12.60;99.90
67750;DHT22;54550;48.838;8.828;2022-12-31T05:38:06;12.40;99.90
67750;DHT22;54550;48.838;8.828;2022-12-31T05:40:32;12.50;99.90
67750;DHT22;54550;48.838;8.828;2022-12-31T05:42:57;12.50;99.90
67750;DHT22;54550;48.838;8.828;2022-12-31T05:45:23;12.60;99.90
67750;DHT22;54550;48.838;8.828;2022-12-31T05:47:49;12.60;99.90
67750;DHT22;54550;48.838;8.828;2022-12-31T05:50:15;12.60;99.90
67750;DHT22;54550;48.838;8.828;2022-12-31T05:52:42;12.50;99.90
67750;DHT22;54550;48.838;8.828;2022-12-31T05:55:08;12.60;99.90
67750;DHT22;54550;48.838;8.828;2022-12-31T05:57:33;12.70;99.90
67750;DHT22;54550;48.838;8.828;2022-12-31T05:59:59;12.80;99.90
67750;DHT22;54550;48.838;8.828;2022-12-31T06:02:24;12.70;99.90
67750;DHT22;54550;48.838;8.828;2022-12-31T06:04:50;12.70;99.90
67750;DHT22;54550;48.838;8.828;2022-12-31T06:07:16;12.70;99.90
67750;DHT22;54550;48.838;8.828;2022-12-31T06:09:41;12.60;99.90
67750;DHT22;54550;48.838;8.828;2022-12-31T06:12:07;12.70;99.90
67750;DHT22;54550;48.838;8.828;2022-12-31T06:14:33;12.60;99.90
67750;DHT22;54550;48.838;8.828;2022-12-31T06:16:59;12.50;99.90
67750;DHT22;54550;48.838;8.828;2022-12-31T06:19:25;12.50;99.90
67750;DHT22;54550;48.838;8.828;2022-12-31T06:21:51;12.40;99.90
67750;DHT22;54550;48.838;8.828;2022-12-31T06:24:17;12.30;99.90
67750;DHT22;54550;48.838;8.828;2022-12-31T06:26:42;12.40;99.90
67750;DHT22;54550;48.838;8.828;2022-12-31T06:29:08;12.40;99.90
67750;DHT22;54550;48.838;8.828;2022-12-31T06:31:35;12.50;99.90
67750;DHT22;54550;48.838;8.828;2022-12-31T06:34:01;12.60;99.90
67750;DHT22;54550;48.838;8.828;2022-12-31T06:36:26;12.70;99.90
67750;DHT22;54550;48.838;8.828;2022-12-31T06:38:52;12.80;99.90
67750;DHT22;54550;48.838;8.828;2022-12-31T06:41:18;12.70;99.90
67750;DHT22;54550;48.838;8.828;2022-12-31T06:43:44;12.60;99.90
67750;DHT22;54550;48.838;8.828;2022-12-31T06:46:12;12.60;99.90
67750;DHT22;54550;48.838;8.828;2022-12-31T06:48:38;12.40;99.90
67750;DHT22;54550;48.838;8.828;2022-12-31T06:51:09;12.40;99.90
67750;DHT22;54550;48.838;8.828;2022-12-31T06:53:34;12.40;99.90
67750;DHT22;54550;48.838;8.828;2022-12-31T06:56:08;12.40;99.90
67750;DHT22;54550;48.838;8.828;2022-12-31T06:58:35;12.30;99.90
67750;DHT22;54550;48.838;8.828;2022-12-31T07:06:15;12.30;99.90
67750;DHT22;54550;48.838;8.828;2022-12-31T07:08:58;12.10;99.90
67750;DHT22;54550;48.838;8.828;2022-12-31T07:11:30;12.10;99.90
67750;DHT22;54550;48.838;8.828;2022-12-31T07:16:58;12.10;99.90
67750;DHT22;54550;48.838;8.828;2022-12-31T07:22:02;12.00;99.90
67750;DHT22;54550;48.838;8.828;2022-12-31T07:24:28;12.00;99.90
67750;DHT22;54550;48.838;8.828;2022-12-31T07:27:27;12.00;99.90
67750;DHT22;54550;48.838;8.828;2022-12-31T07:30:05;12.10;99.90
67750;DHT22;54550;48.838;8.828;2022-12-31T07:35:41;12.20;99.90
67750;DHT22;54550;48.838;8.828;2022-12-31T07:38:37;12.20;99.90
67750;DHT22;54550;48.838;8.828;2022-12-31T07:43:56;12.30;99.90
67750;DHT22;54550;48.838;8.828;2022-12-31T07:49:18;12.20;99.90
67750;DHT22;54550;48.838;8.828;2022-12-31T07:51:43;12.20;99.90
67750;DHT22;54550;48.838;8.828;2022-12-31T07:54:09;12.30;99.90
67750;DHT22;54550;48.838;8.828;2022-12-31T07:56:35;12.50;99.90
67750;DHT22;54550;48.838;8.828;2022-12-31T07:59:28;12.50;99.90
67750;DHT22;54550;48.838;8.828;2022-12-31T08:07:40;12.60;99.90
67750;DHT22;54550;48.838;8.828;2022-12-31T08:10:36;12.70;99.90
67750;DHT22;54550;48.838;8.828;2022-12-31T08:13:08;12.70;99.90
67750;DHT22;54550;48.838;8.828;2022-12-31T08:15:36;12.70;99.90
67750;DHT22;54550;48.838;8.828;2022-12-31T08:18:02;12.70;99.90
67750;DHT22;54550;48.838;8.828;2022-12-31T08:20:29;12.60;99.90
67750;DHT22;54550;48.838;8.828;2022-12-31T08:23:25;12.70;99.90
67750;DHT22;54550;48.838;8.828;2022-12-31T08:31:17;12.80;99.90
67750;DHT22;54550;48.838;8.828;2022-12-31T08:33:47;12.80;99.90
67750;DHT22;54550;48.838;8.828;2022-12-31T08:36:27;13.00;99.90
67750;DHT22;54550;48.838;8.828;2022-12-31T08:41:38;13.00;99.90
67750;DHT22;54550;48.838;8.828;2022-12-31T08:49:09;13.00;99.90
67750;DHT22;54550;48.838;8.828;2022-12-31T08:51:35;13.10;99.90
67750;DHT22;54550;48.838;8.828;2022-12-31T08:54:01;13.10;99.90
67750;DHT22;54550;48.838;8.828;2022-12-31T08:56:54;13.10;99.90
67750;DHT22;54550;48.838;8.828;2022-12-31T08:59:43;13.30;99.90
67750;DHT22;54550;48.838;8.828;2022-12-31T09:02:30;13.50;99.90
67750;DHT22;54550;48.838;8.828;2022-12-31T09:08:07;14.40;99.90
67750;DHT22;54550;48.838;8.828;2022-12-31T09:10:42;14.70;99.90
67750;DHT22;54550;48.838;8.828;2022-12-31T09:18:28;15.60;99.90
67750;DHT22;54550;48.838;8.828;2022-12-31T09:20:54;16.10;99.90
67750;DHT22;54550;48.838;8.828;2022-12-31T09:23:20;16.30;99.90
67750;DHT22;54550;48.838;8.828;2022-12-31T09:28:59;15.80;99.90
67750;DHT22;54550;48.838;8.828;2022-12-31T09:34:11;16.20;99.90
67750;DHT22;54550;48.838;8.828;2022-12-31T09:36:47;16.20;99.90
67750;DHT22;54550;48.838;8.828;2022-12-31T09:42:11;16.20;99.90
67750;DHT22;54550;48.838;8.828;2022-12-31T09:48:12;15.60;99.90
67750;DHT22;54550;48.838;8.828;2022-12-31T09:55:48;17.00;99.90
67750;DHT22;54550;48.838;8.828;2022-12-31T10:01:06;17.00;99.90
67750;DHT22;54550;48.838;8.828;2022-12-31T10:06:27;17.10;99.90
67750;DHT22;54550;48.838;8.828;2022-12-31T10:12:35;16.60;99.90
67750;DHT22;54550;48.838;8.828;2022-12-31T10:28:57;17.70;99.90
67750;DHT22;54550;48.838;8.828;2022-12-31T10:34:16;17.40;99.90
67750;DHT22;54550;48.838;8.828;2022-12-31T10:37:17;17.20;99.90
67750;DHT22;54550;48.838;8.828;2022-12-31T10:53:40;17.50;99.90
67750;DHT22;54550;48.838;8.828;2022-12-31T11:18:42;17.60;99.90
67750;DHT22;54550;48.838;8.828;2022-12-31T11:27:17;17.60;99.90
67750;DHT22;54550;48.838;8.828;2022-12-31T11:30:16;17.30;99.90
67750;DHT22;54550;48.838;8.828;2022-12-31T11:35:37;17.50;99.90
67750;DHT22;54550;48.838;8.828;2022-12-31T11:38:29;17.40;99.90
67750;DHT22;54550;48.838;8.828;2022-12-31T11:41:26;17.30;99.90
67750;DHT22;54550;48.838;8.828;2022-12-31T11:57:50;17.60;99.90
67750;DHT22;54550;48.838;8.828;2022-12-31T12:00:22;17.70;99.90
67750;DHT22;54550;48.838;8.828;2022-12-31T12:02:51;17.60;99.90
67750;DHT22;54550;48.838;8.828;2022-12-31T12:05:20;17.60;99.90
67750;DHT22;54550;48.838;8.828;2022-12-31T12:07:47;17.50;99.90
67750;DHT22;54550;48.838;8.828;2022-12-31T12:12:42;17.40;99.90
67750;DHT22;54550;48.838;8.828;2022-12-31T12:15:09;17.50;99.90
67750;DHT22;54550;48.838;8.828;2022-12-31T12:17:36;17.50;99.90
67750;DHT22;54550;48.838;8.828;2022-12-31T12:20:17;17.40;99.90
67750;DHT22;54550;48.838;8.828;2022-12-31T12:22:52;17.20;99.90
67750;DHT22;54550;48.838;8.828;2022-12-31T12:25:21;17.10;99.90
67750;DHT22;54550;48.838;8.828;2022-12-31T12:27:47;17.00;99.90
67750;DHT22;54550;48.838;8.828;2022-12-31T12:30:20;17.00;99.90
67750;DHT22;54550;48.838;8.828;2022-12-31T12:32:54;16.90;99.90
67750;DHT22;54550;48.838;8.828;2022-12-31T12:35:26;16.90;99.90
67750;DHT22;54550;48.838;8.828;2022-12-31T12:38:06;16.90;99.90
67750;DHT22;54550;48.838;8.828;2022-12-31T12:40:37;16.90;99.90
67750;DHT22;54550;48.838;8.828;2022-12-31T12:43:03;17.00;99.90
67750;DHT22;54550;48.838;8.828;2022-12-31T12:45:40;17.10;99.90
67750;DHT22;54550;48.838;8.828;2022-12-31T12:50:58;17.20;99.90
67750;DHT22;54550;48.838;8.828;2022-12-31T13:05:39;17.10;99.90
67750;DHT22;54550;48.838;8.828;2022-12-31T13:08:21;17.10;99.90
67750;DHT22;54550;48.838;8.828;2022-12-31T13:19:53;16.90;99.90
67750;DHT22;54550;48.838;8.828;2022-12-31T13:22:48;16.80;99.90
67750;DHT22;54550;48.838;8.828;2022-12-31T13:28:10;16.70;99.90
67750;DHT22;54550;48.838;8.828;2022-12-31T13:30:46;16.70;99.90
67750;DHT22;54550;48.838;8.828;2022-12-31T13:35:55;16.60;99.90
67750;DHT22;54550;48.838;8.828;2022-12-31T13:38:47;16.40;99.90
67750;DHT22;54550;48.838;8.828;2022-12-31T13:43:59;16.10;99.90
67750;DHT22;54550;48.838;8.828;2022-12-31T13:49:33;16.00;99.90
67750;DHT22;54550;48.838;8.828;2022-12-31T13:55:03;15.80;99.90
67750;DHT22;54550;48.838;8.828;2022-12-31T13:57:53;15.70;99.90
67750;DHT22;54550;48.838;8.828;2022-12-31T14:00:27;15.70;99.90
67750;DHT22;54550;48.838;8.828;2022-12-31T14:03:12;15.70;99.90
67750;DHT22;54550;48.838;8.828;2022-12-31T14:05:55;15.70;99.90
67750;DHT22;54550;48.838;8.828;2022-12-31T14:08:22;15.70;99.90
67750;DHT22;54550;48.838;8.828;2022-12-31T14:11:03;15.60;99.90
67750;DHT22;54550;48.838;8.828;2022-12-31T14:16:39;15.50;99.90
67750;DHT22;54550;48.838;8.828;2022-12-31T14:21:53;15.40;99.90
67750;DHT22;54550;48.838;8.828;2022-12-31T14:24:41;15.30;99.90
67750;DHT22;54550;48.838;8.828;2022-12-31T14:27:28;15.20;99.90
67750;DHT22;54550;48.838;8.828;2022-12-31T14:30:01;15.10;99.90
67750;DHT22;54550;48.838;8.828;2022-12-31T14:32:44;14.90;99.90
67750;DHT22;54550;48.838;8.828;2022-12-31T14:35:34;14.80;99.90
67750;DHT22;54550;48.838;8.828;2022-12-31T14:38:29;14.70;99.90
67750;DHT22;54550;48.838;8.828;2022-12-31T14:47:07;14.40;99.90
67750;DHT22;54550;48.838;8.828;2022-12-31T14:49:48;14.40;99.90
67750;DHT22;54550;48.838;8.828;2022-12-31T14:54:41;14.40;99.90
67750;DHT22;54550;48.838;8.828;2022-12-31T14:59:55;14.20;99.90
67750;DHT22;54550;48.838;8.828;2022-12-31T15:02:27;14.20;99.90
67750;DHT22;54550;48.838;8.828;2022-12-31T15:05:16;14.00;99.90
67750;DHT22;54550;48.838;8.828;2022-12-31T15:23:59;13.50;99.90
67750;DHT22;54550;48.838;8.828;2022-12-31T15:26:27;13.50;99.90
67750;DHT22;54550;48.838;8.828;2022-12-31T15:29:04;13.30;99.90
67750;DHT22;54550;48.838;8.828;2022-12-31T15:31:31;13.20;99.90
67750;DHT22;54550;48.838;8.828;2022-12-31T15:34:05;13.20;99.90
67750;DHT22;54550;48.838;8.828;2022-12-31T15:36:36;13.10;99.90
67750;DHT22;54550;48.838;8.828;2022-12-31T15:41:42;13.00;99.90
67750;DHT22;54550;48.838;8.828;2022-12-31T15:44:25;13.00;99.90
67750;DHT22;54550;48.838;8.828;2022-12-31T15:47:24;13.00;99.90
67750;DHT22;54550;48.838;8.828;2022-12-31T15:49:52;13.10;99.90
67750;DHT22;54550;48.838;8.828;2022-12-31T15:52:25;13.10;99.90
67750;DHT22;54550;48.838;8.828;2022-12-31T15:54:56;13.00;99.90
67750;DHT22;54550;48.838;8.828;2022-12-31T15:57:37;13.00;99.90
67750;DHT22;54550;48.838;8.828;2022-12-31T16:00:33;12.90;99.90
67750;DHT22;54550;48.838;8.828;2022-12-31T16:02:54;12.90;99.90
67750;DHT22;54550;48.838;8.828;2022-12-31T16:05:25;12.90;99.90
67750;DHT22;54550;48.838;8.828;2022-12-31T16:07:58;12.90;99.90
67750;DHT22;54550;48.838;8.828;2022-12-31T16:10:29;12.80;99.90
67750;DHT22;54550;48.838;8.828;2022-12-31T16:12:56;12.80;99.90
67750;DHT22;54550;48.838;8.828;2022-12-31T16:15:26;12.90;99.90
67750;DHT22;54550;48.838;8.828;2022-12-31T16:18:08;13.20;99.90
67750;DHT22;54550;48.838;8.828;2022-12-31T16:20:40;13.10;99.90
67750;DHT22;54550;48.838;8.828;2022-12-31T16:23:22;13.20;99.90
67750;DHT22;54550;48.838;8.828;2022-12-31T16:25:50;13.30;99.90
67750;DHT22;54550;48.838;8.828;2022-12-31T16:28:19;13.50;99.90
67750;DHT22;54550;48.838;8.828;2022-12-31T16:30:53;13.70;99.90
67750;DHT22;54550;48.838;8.828;2022-12-31T16:33:21;13.70;99.90
67750;DHT22;54550;48.838;8.828;2022-12-31T16:35:54;13.80;99.90
67750;DHT22;54550;48.838;8.828;2022-12-31T16:38:20;13.90;99.90
67750;DHT22;54550;48.838;8.828;2022-12-31T16:43:34;13.90;99.90
67750;DHT22;54550;48.838;8.828;2022-12-31T16:46:22;13.80;99.90
67750;DHT22;54550;48.838;8.828;2022-12-31T16:48:58;13.80;99.90
67750;DHT22;54550;48.838;8.828;2022-12-31T16:51:28;13.90;99.90
67750;DHT22;54550;48.838;8.828;2022-12-31T16:53:55;13.80;99.90
67750;DHT22;54550;48.838;8.828;2022-12-31T16:56:38;13.80;99.90
67750;DHT22;54550;48.838;8.828;2022-12-31T16:59:17;13.70;99.90
67750;DHT22;54550;48.838;8.828;2022-12-31T17:01:46;13.60;99.90
67750;DHT22;54550;48.838;8.828;2022-12-31T17:04:17;13.50;99.90
67750;DHT22;54550;48.838;8.828;2022-12-31T17:06:43;13.30;99.90
67750;DHT22;54550;48.838;8.828;2022-12-31T17:09:15;13.20;99.90
67750;DHT22;54550;48.838;8.828;2022-12-31T17:11:55;13.00;99.90
67750;DHT22;54550;48.838;8.828;2022-12-31T17:14:27;12.90;99.90
67750;DHT22;54550;48.838;8.828;2022-12-31T17:17:01;12.90;99.90
67750;DHT22;54550;48.838;8.828;2022-12-31T17:22:00;13.00;99.90
67750;DHT22;54550;48.838;8.828;2022-12-31T17:24:25;12.90;99.90
67750;DHT22;54550;48.838;8.828;2022-12-31T17:26:51;12.80;99.90
67750;DHT22;54550;48.838;8.828;2022-12-31T17:29:21;12.80;99.90
67750;DHT22;54550;48.838;8.828;2022-12-31T17:34:49;12.70;99.90
67750;DHT22;54550;48.838;8.828;2022-12-31T17:37:27;12.70;99.90
67750;DHT22;54550;48.838;8.828;2022-12-31T17:39:55;12.70;99.90
67750;DHT22;54550;48.838;8.828;2022-12-31T17:44:57;12.70;99.90
67750;DHT22;54550;48.838;8.828;2022-12-31T17:47:38;12.60;99.90
67750;DHT22;54550;48.838;8.828;2022-12-31T17:50:15;12.60;99.90
67750;DHT22;54550;48.838;8.828;2022-12-31T17:52:43;12.60;99.90
67750;DHT22;54550;48.838;8.828;2022-12-31T17:55:08;12.60;99.90
67750;DHT22;54550;48.838;8.828;2022-12-31T17:57:34;12.50;99.90
67750;DHT22;54550;48.838;8.828;2022-12-31T18:00:04;12.50;99.90
67750;DHT22;54550;48.838;8.828;2022-12-31T18:02:30;12.30;99.90
67750;DHT22;54550;48.838;8.828;2022-12-31T18:04:55;12.20;99.90
67750;DHT22;54550;48.838;8.828;2022-12-31T18:07:21;12.10;99.90
67750;DHT22;54550;48.838;8.828;2022-12-31T18:09:47;11.90;99.90
67750;DHT22;54550;48.838;8.828;2022-12-31T18:12:13;11.70;99.90
67750;DHT22;54550;48.838;8.828;2022-12-31T18:14:41;11.80;99.90
67750;DHT22;54550;48.838;8.828;2022-12-31T18:17:14;11.70;99.90
67750;DHT22;54550;48.838;8.828;2022-12-31T18:19:40;11.60;99.90
67750;DHT22;54550;48.838;8.828;2022-12-31T18:22:06;11.60;99.90
67750;DHT22;54550;48.838;8.828;2022-12-31T18:24:33;11.50;99.90
67750;DHT22;54550;48.838;8.828;2022-12-31T18:26:59;11.50;99.90
67750;DHT22;54550;48.838;8.828;2022-12-31T18:29:24;11.40;99.90
67750;DHT22;54550;48.838;8.828;2022-12-31T18:31:50;11.40;99.90
67750;DHT22;54550;48.838;8.828;2022-12-31T18:34:16;11.40;99.90
67750;DHT22;54550;48.838;8.828;2022-12-31T18:36:42;11.30;99.90
67750;DHT22;54550;48.838;8.828;2022-12-31T18:39:08;11.30;99.90
67750;DHT22;54550;48.838;8.828;2022-12-31T18:41:39;11.20;99.90
67750;DHT22;54550;48.838;8.828;2022-12-31T18:44:05;11.20;99.90
67750;DHT22;54550;48.838;8.828;2022-12-31T18:46:31;11.20;99.90
67750;DHT22;54550;48.838;8.828;2022-12-31T18:48:56;11.20;99.90
67750;DHT22;54550;48.838;8.828;2022-12-31T18:51:23;11.20;99.90
67750;DHT22;54550;48.838;8.828;2022-12-31T18:53:49;11.10;99.90
67750;DHT22;54550;48.838;8.828;2022-12-31T18:56:18;11.10;99.90
67750;DHT22;54550;48.838;8.828;2022-12-31T18:58:44;11.20;99.90
67750;DHT22;54550;48.838;8.828;2022-12-31T19:01:29;11.30;99.90
67750;DHT22;54550;48.838;8.828;2022-12-31T19:03:59;11.30;99.90
67750;DHT22;54550;48.838;8.828;2022-12-31T19:06:25;11.20;99.90
67750;DHT22;54550;48.838;8.828;2022-12-31T19:08:51;11.20;99.90
67750;DHT22;54550;48.838;8.828;2022-12-31T19:11:17;11.30;99.90
67750;DHT22;54550;48.838;8.828;2022-12-31T19:13:43;11.40;99.90
67750;DHT22;54550;48.838;8.828;2022-12-31T19:16:10;11.40;99.90
67750;DHT22;54550;48.838;8.828;2022-12-31T19:18:36;11.40;99.90
67750;DHT22;54550;48.838;8.828;2022-12-31T19:21:02;11.40;99.90
67750;DHT22;54550;48.838;8.828;2022-12-31T19:23:27;11.40;99.90
67750;DHT22;54550;48.838;8.828;2022-12-31T19:25:53;11.40;99.90
67750;DHT22;54550;48.838;8.828;2022-12-31T19:28:24;11.50;99.90
67750;DHT22;54550;48.838;8.828;2022-12-31T19:30:51;11.50;99.90
67750;DHT22;54550;48.838;8.828;2022-12-31T19:33:17;11.50;99.90
67750;DHT22;54550;48.838;8.828;2022-12-31T19:35:43;11.40;99.90
67750;DHT22;54550;48.838;8.828;2022-12-31T19:38:21;11.40;99.90
67750;DHT22;54550;48.838;8.828;2022-12-31T19:40:48;11.40;99.90
67750;DHT22;54550;48.838;8.828;2022-12-31T19:43:18;11.50;99.90
67750;DHT22;54550;48.838;8.828;2022-12-31T19:45:44;11.40;99.90
67750;DHT22;54550;48.838;8.828;2022-12-31T19:48:21;11.40;99.90
67750;DHT22;54550;48.838;8.828;2022-12-31T19:50:49;11.40;99.90
67750;DHT22;54550;48.838;8.828;2022-12-31T19:53:24;11.30;99.90
67750;DHT22;54550;48.838;8.828;2022-12-31T19:55:51;11.30;99.90
67750;DHT22;54550;48.838;8.828;2022-12-31T19:58:21;11.20;99.90
67750;DHT22;54550;48.838;8.828;2022-12-31T20:00:49;11.20;99.90
67750;DHT22;54550;48.838;8.828;2022-12-31T20:03:15;11.10;99.90
67750;DHT22;54550;48.838;8.828;2022-12-31T20:05:42;11.00;99.90
67750;DHT22;54550;48.838;8.828;2022-12-31T20:08:08;11.00;99.90